createdAt,value
2022-10-27T00:00:32.711Z,12.64
2022-10-27T00:01:32.764Z,12.67
2022-10-27T00:02:32.838Z,12.73
2022-10-27T00:03:32.864Z,12.73
2022-10-27T00:04:32.683Z,12.73
2022-10-27T00:05:32.663Z,12.70
2022-10-27T00:06:32.631Z,12.64
2022-10-27T00:07:32.609Z,12.60
2022-10-27T00:08:33.417Z,12.60
2022-10-27T00:09:32.596Z,12.61
2022-10-27T00:10:32.589Z,12.64
2022-10-27T00:11:32.629Z,12.68
2022-10-27T00:12:32.557Z,12.68
2022-10-27T00:13:32.694Z,12.72
2022-10-27T00:14:32.656Z,12.76
2022-10-27T00:15:32.507Z,12.75
2022-10-27T00:16:32.703Z,12.70
2022-10-27T00:17:32.487Z,12.72
2022-10-27T00:18:32.735Z,12.67
2022-10-27T00:19:32.455Z,12.64
2022-10-27T00:20:32.455Z,12.65
2022-10-27T00:21:32.425Z,12.67
2022-10-27T00:22:32.420Z,12.67
2022-10-27T00:23:32.413Z,12.68
2022-10-27T00:24:32.682Z,12.72
2022-10-27T00:25:32.372Z,12.73
2022-10-27T00:26:32.362Z,12.72
2022-10-27T00:27:32.479Z,12.68
2022-10-27T00:28:32.364Z,12.64
2022-10-27T00:29:32.367Z,12.58
2022-10-27T00:30:32.700Z,12.55
2022-10-27T00:31:32.307Z,12.53
2022-10-27T00:32:32.288Z,12.47
2022-10-27T00:33:32.284Z,12.47
2022-10-27T00:34:32.267Z,12.49
2022-10-27T00:35:32.266Z,12.50
2022-10-27T00:36:34.288Z,12.49
2022-10-27T00:37:32.224Z,12.47
2022-10-27T00:38:32.220Z,12.42
2022-10-27T00:39:33.134Z,12.37
2022-10-27T00:40:32.184Z,12.37
2022-10-27T00:41:33.486Z,12.40
2022-10-27T00:42:32.176Z,12.42
2022-10-27T00:43:32.145Z,12.43
2022-10-27T00:44:32.130Z,12.46
2022-10-27T00:45:32.109Z,12.47
2022-10-27T00:46:32.112Z,12.47
2022-10-27T00:47:32.375Z,12.46
2022-10-27T00:48:32.083Z,12.45
2022-10-27T00:49:32.071Z,12.40
2022-10-27T00:50:32.058Z,12.37
2022-10-27T00:51:32.049Z,12.35
2022-10-27T00:52:32.020Z,12.31
2022-10-27T00:53:32.311Z,12.29
2022-10-27T00:54:31.998Z,12.29
2022-10-27T00:55:31.989Z,12.28
2022-10-27T00:56:31.974Z,12.27
2022-10-27T00:57:31.955Z,12.28
2022-10-27T00:58:31.960Z,12.28
2022-10-27T00:59:32.144Z,12.29
2022-10-27T01:00:32.951Z,12.28
2022-10-27T01:01:32.039Z,12.28
2022-10-27T01:02:31.895Z,12.21
2022-10-27T01:03:32.156Z,12.20
2022-10-27T01:04:31.971Z,12.24
2022-10-27T01:05:31.881Z,12.27
2022-10-27T01:06:31.874Z,12.29
2022-10-27T01:07:31.823Z,12.32
2022-10-27T01:08:32.753Z,12.31
2022-10-27T01:09:31.974Z,12.25
2022-10-27T01:10:31.791Z,12.25
2022-10-27T01:11:31.782Z,12.22
2022-10-27T01:12:31.772Z,12.20
2022-10-27T01:13:31.982Z,12.21
2022-10-27T01:14:31.783Z,12.24
2022-10-27T01:15:31.900Z,12.25
2022-10-27T01:16:31.737Z,12.22
2022-10-27T01:17:32.156Z,12.24
2022-10-27T01:18:31.699Z,12.25
2022-10-27T01:19:31.696Z,12.25
2022-10-27T01:20:31.657Z,12.24
2022-10-27T01:21:31.648Z,12.22
2022-10-27T01:22:31.892Z,12.20
2022-10-27T01:23:31.635Z,12.21
2022-10-27T01:24:31.610Z,12.20
2022-10-27T01:25:31.593Z,12.20
2022-10-27T01:26:31.597Z,12.17
2022-10-27T01:27:31.555Z,12.17
2022-10-27T01:28:31.751Z,12.21
2022-10-27T01:29:31.533Z,12.24
2022-10-27T01:30:31.537Z,12.24
2022-10-27T01:31:31.521Z,12.25
2022-10-27T01:32:31.516Z,12.21
2022-10-27T01:33:31.493Z,12.17
2022-10-27T01:34:31.751Z,12.20
2022-10-27T01:35:31.462Z,12.07
2022-10-27T01:36:31.448Z,11.91
2022-10-27T01:37:31.531Z,11.78
2022-10-27T01:38:31.423Z,11.69
2022-10-27T01:39:31.491Z,11.62
2022-10-27T01:40:31.699Z,11.57
2022-10-27T01:41:31.470Z,11.54
2022-10-27T01:42:31.367Z,11.59
2022-10-27T01:43:31.374Z,11.59
2022-10-27T01:44:31.356Z,11.57
2022-10-27T01:45:31.335Z,11.55
2022-10-27T01:46:31.509Z,11.54
2022-10-27T01:47:31.297Z,11.52
2022-10-27T01:48:32.074Z,11.59
2022-10-27T01:49:31.296Z,11.51
2022-10-27T01:50:40.206Z,11.44
2022-10-27T01:51:32.628Z,11.44
2022-10-27T01:52:31.271Z,11.41
2022-10-27T01:53:31.270Z,11.37
2022-10-27T01:54:31.221Z,11.41
2022-10-27T01:55:31.228Z,11.44
2022-10-27T01:56:31.259Z,11.50
2022-10-27T01:57:31.516Z,11.54
2022-10-27T01:58:31.168Z,11.60
2022-10-27T01:59:31.152Z,11.57
2022-10-27T02:00:31.165Z,11.52
2022-10-27T02:02:31.130Z,11.48
2022-10-27T02:03:31.449Z,11.48
2022-10-27T02:04:31.101Z,11.51
2022-10-27T02:05:31.076Z,11.57
2022-10-27T02:06:31.058Z,11.57
2022-10-27T02:07:31.063Z,11.60
2022-10-27T02:08:31.077Z,11.62
2022-10-27T02:09:31.288Z,11.63
2022-10-27T02:10:31.008Z,11.66
2022-10-27T02:11:31.021Z,11.69
2022-10-27T02:12:30.993Z,11.72
2022-10-27T02:13:30.985Z,11.69
2022-10-27T02:14:31.023Z,11.68
2022-10-27T02:15:31.156Z,11.69
2022-10-27T02:16:30.945Z,11.70
2022-10-27T02:17:30.941Z,11.73
2022-10-27T02:18:30.993Z,11.73
2022-10-27T02:19:30.893Z,11.75
2022-10-27T02:20:30.881Z,11.78
2022-10-27T02:21:31.327Z,11.77
2022-10-27T02:22:30.851Z,11.78
2022-10-27T02:23:30.853Z,11.83
2022-10-27T02:24:30.843Z,11.84
2022-10-27T02:25:31.150Z,11.87
2022-10-27T02:26:30.860Z,11.90
2022-10-27T02:27:30.790Z,11.91
2022-10-27T02:28:30.849Z,11.86
2022-10-27T02:29:30.768Z,11.80
2022-10-27T02:30:30.779Z,11.81
2022-10-27T02:31:30.920Z,11.83
2022-10-27T02:32:30.801Z,11.84
2022-10-27T02:33:30.750Z,11.86
2022-10-27T02:34:30.717Z,11.87
2022-10-27T02:35:30.719Z,11.86
2022-10-27T02:36:30.673Z,11.87
2022-10-27T02:37:30.855Z,11.88
2022-10-27T02:38:30.963Z,11.90
2022-10-27T02:39:30.631Z,11.90
2022-10-27T02:40:30.666Z,11.95
2022-10-27T02:41:30.612Z,11.95
2022-10-27T02:42:30.795Z,11.90
2022-10-27T02:43:30.593Z,11.70
2022-10-27T02:44:30.585Z,11.60
2022-10-27T02:45:30.561Z,11.57
2022-10-27T02:46:30.541Z,11.52
2022-10-27T02:47:31.238Z,11.47
2022-10-27T02:48:30.528Z,11.50
2022-10-27T02:49:30.531Z,11.52
2022-10-27T02:50:30.572Z,11.50
2022-10-27T02:51:30.498Z,11.51
2022-10-27T02:52:31.027Z,11.52
2022-10-27T02:53:30.458Z,11.57
2022-10-27T02:54:30.479Z,11.55
2022-10-27T02:55:30.463Z,11.51
2022-10-27T02:56:30.441Z,11.50
2022-10-27T02:57:30.586Z,11.51
2022-10-27T02:58:30.396Z,11.52
2022-10-27T02:59:30.392Z,11.55
2022-10-27T03:00:30.366Z,11.60
2022-10-27T03:01:30.567Z,11.59
2022-10-27T03:02:30.535Z,11.60
2022-10-27T03:03:30.345Z,11.62
2022-10-27T03:04:30.341Z,11.59
2022-10-27T03:05:30.302Z,11.63
2022-10-27T03:06:30.301Z,11.59
2022-10-27T03:07:30.452Z,11.52
2022-10-27T03:08:31.191Z,11.52
2022-10-27T03:09:30.273Z,11.55
2022-10-27T03:10:30.244Z,11.62
2022-10-27T03:11:30.238Z,11.62
2022-10-27T03:12:30.224Z,11.62
2022-10-27T03:13:30.415Z,11.60
2022-10-27T03:14:30.206Z,11.57
2022-10-27T03:15:30.406Z,11.52
2022-10-27T03:16:30.190Z,11.52
2022-10-27T03:17:30.201Z,11.52
2022-10-27T03:18:30.318Z,11.54
2022-10-27T03:19:30.240Z,11.48
2022-10-27T03:20:30.116Z,11.47
2022-10-27T03:21:30.092Z,11.45
2022-10-27T03:22:30.082Z,11.48
2022-10-27T03:23:30.273Z,11.52
2022-10-27T03:24:30.067Z,11.59
2022-10-27T03:25:30.065Z,11.65
2022-10-27T03:26:30.045Z,11.65
2022-10-27T03:27:30.023Z,11.63
2022-10-27T03:28:30.220Z,11.60
2022-10-27T03:29:29.982Z,11.50
2022-10-27T03:30:30.009Z,11.50
2022-10-27T03:31:29.965Z,11.50
2022-10-27T03:32:29.962Z,11.45
2022-10-27T03:33:30.118Z,11.36
2022-10-27T03:34:29.923Z,11.36
2022-10-27T03:35:29.914Z,11.33
2022-10-27T03:36:30.637Z,11.33
2022-10-27T03:37:29.907Z,11.35
2022-10-27T03:38:30.138Z,11.35
2022-10-27T03:39:30.438Z,11.35
2022-10-27T03:40:29.877Z,11.37
2022-10-27T03:41:29.836Z,11.43
2022-10-27T03:42:29.844Z,11.47
2022-10-27T03:43:29.807Z,11.51
2022-10-27T03:44:30.093Z,11.52
2022-10-27T03:45:29.777Z,11.45
2022-10-27T03:46:29.772Z,11.43
2022-10-27T03:47:29.748Z,11.43
2022-10-27T03:48:29.754Z,11.41
2022-10-27T03:49:29.727Z,11.35
2022-10-27T03:50:29.975Z,11.32
2022-10-27T03:51:29.707Z,11.33
2022-10-27T03:52:32.475Z,11.33
2022-10-27T03:53:29.672Z,11.32
2022-10-27T03:54:29.682Z,11.35
2022-10-27T03:55:30.410Z,11.36
2022-10-27T03:56:29.818Z,11.37
2022-10-27T03:57:29.627Z,11.40
2022-10-27T03:58:29.620Z,11.41
2022-10-27T03:59:29.597Z,11.44
2022-10-27T04:00:29.598Z,11.48
2022-10-27T04:01:29.924Z,11.44
2022-10-27T04:02:29.603Z,11.45
2022-10-27T04:03:29.545Z,11.52
2022-10-27T04:04:29.534Z,11.50
2022-10-27T04:05:29.519Z,11.45
2022-10-27T04:06:29.744Z,11.35
2022-10-27T04:07:29.492Z,11.29
2022-10-27T04:08:29.492Z,11.26
2022-10-27T04:09:29.476Z,11.26
2022-10-27T04:10:29.462Z,11.19
2022-10-27T04:11:29.622Z,11.07
2022-10-27T04:12:29.437Z,11.00
2022-10-27T04:13:30.869Z,10.96
2022-10-27T04:14:29.403Z,10.99
2022-10-27T04:15:29.393Z,11.05
2022-10-27T04:16:29.449Z,11.07
2022-10-27T04:17:30.649Z,11.10
2022-10-27T04:18:29.379Z,11.10
2022-10-27T04:19:29.336Z,11.08
2022-10-27T04:20:29.325Z,11.04
2022-10-27T04:21:29.318Z,11.00
2022-10-27T04:22:36.584Z,10.94
2022-10-27T04:23:29.282Z,10.92
2022-10-27T04:24:29.269Z,10.93
2022-10-27T04:25:29.257Z,10.86
2022-10-27T04:26:29.248Z,10.81
2022-10-27T04:27:29.420Z,10.71
2022-10-27T04:28:29.229Z,10.74
2022-10-27T04:29:29.209Z,10.72
2022-10-27T04:30:29.195Z,10.74
2022-10-27T04:31:29.176Z,10.76
2022-10-27T04:32:29.344Z,10.82
2022-10-27T04:33:29.368Z,10.82
2022-10-27T04:34:29.148Z,10.86
2022-10-27T04:35:29.172Z,10.92
2022-10-27T04:36:29.117Z,10.86
2022-10-27T04:37:29.274Z,10.86
2022-10-27T04:38:30.332Z,10.81
2022-10-27T04:39:29.071Z,10.74
2022-10-27T04:40:29.060Z,10.78
2022-10-27T04:41:29.044Z,10.78
2022-10-27T04:42:29.213Z,10.76
2022-10-27T04:43:29.020Z,10.75
2022-10-27T04:44:29.008Z,10.75
2022-10-27T04:45:28.992Z,10.81
2022-10-27T04:46:28.991Z,10.87
2022-10-27T04:47:29.143Z,10.92
2022-10-27T04:48:28.960Z,10.93
2022-10-27T04:49:28.954Z,10.90
2022-10-27T04:50:28.930Z,10.81
2022-10-27T04:51:28.920Z,10.78
2022-10-27T04:52:29.087Z,10.81
2022-10-27T04:53:28.896Z,10.86
2022-10-27T04:54:28.886Z,10.92
2022-10-27T04:55:28.863Z,10.97
2022-10-27T04:56:28.875Z,11.04
2022-10-27T04:57:29.026Z,11.08
2022-10-27T04:58:28.825Z,11.11
2022-10-27T04:59:28.823Z,11.14
2022-10-27T05:00:28.846Z,11.15
2022-10-27T05:01:28.820Z,11.17
2022-10-27T05:02:29.007Z,11.17
2022-10-27T05:03:28.753Z,11.18
2022-10-27T05:04:28.746Z,11.12
2022-10-27T05:05:28.742Z,11.07
2022-10-27T05:06:28.723Z,11.05
2022-10-27T05:07:29.032Z,11.02
2022-10-27T05:08:28.692Z,10.96
2022-10-27T05:09:28.680Z,10.86
2022-10-27T05:10:28.671Z,10.86
2022-10-27T05:11:28.668Z,10.87
2022-10-27T05:12:28.647Z,10.87
2022-10-27T05:13:28.819Z,10.86
2022-10-27T05:14:28.658Z,10.81
2022-10-27T05:15:28.608Z,10.76
2022-10-27T05:16:28.607Z,10.75
2022-10-27T05:17:28.581Z,10.69
2022-10-27T05:18:28.743Z,10.68
2022-10-27T05:19:28.553Z,10.69
2022-10-27T05:20:28.536Z,10.68
2022-10-27T05:21:28.528Z,10.64
2022-10-27T05:22:28.509Z,10.67
2022-10-27T05:23:28.678Z,10.67
2022-10-27T05:24:28.482Z,10.67
2022-10-27T05:25:28.543Z,10.67
2022-10-27T05:26:29.370Z,10.64
2022-10-27T05:27:28.526Z,10.63
2022-10-27T05:28:28.620Z,10.61
2022-10-27T05:29:28.419Z,10.63
2022-10-27T05:30:28.400Z,10.61
2022-10-27T05:31:28.339Z,10.61
2022-10-27T05:32:28.382Z,10.63
2022-10-27T05:33:28.566Z,10.61
2022-10-27T05:34:28.357Z,10.59
2022-10-27T05:35:28.298Z,10.56
2022-10-27T05:36:28.351Z,10.57
2022-10-27T05:37:28.411Z,10.59
2022-10-27T05:38:28.485Z,10.63
2022-10-27T05:39:28.307Z,10.63
2022-10-27T05:40:28.276Z,10.67
2022-10-27T05:41:28.265Z,10.71
2022-10-27T05:42:28.258Z,10.74
2022-10-27T05:43:31.791Z,10.79
2022-10-27T05:44:29.173Z,10.81
2022-10-27T05:45:28.157Z,10.86
2022-10-27T05:46:28.142Z,10.84
2022-10-27T05:47:28.130Z,10.69
2022-10-27T05:48:28.301Z,10.68
2022-10-27T05:49:28.099Z,10.71
2022-10-27T05:50:28.156Z,10.69
2022-10-27T05:51:28.077Z,10.72
2022-10-27T05:52:28.059Z,10.76
2022-10-27T05:53:28.347Z,10.78
2022-10-27T05:54:28.046Z,10.82
2022-10-27T05:55:28.031Z,10.86
2022-10-27T05:56:28.016Z,10.92
2022-10-27T05:57:28.024Z,10.92
2022-10-27T05:58:27.980Z,10.97
2022-10-27T05:59:28.149Z,11.00
2022-10-27T06:00:27.960Z,11.00
2022-10-27T06:01:28.100Z,11.04
2022-10-27T06:02:28.013Z,11.08
2022-10-27T06:03:27.916Z,11.14
2022-10-27T06:04:28.095Z,11.14
2022-10-27T06:05:27.895Z,11.19
2022-10-27T06:06:27.916Z,11.14
2022-10-27T06:07:27.874Z,11.10
2022-10-27T06:08:27.845Z,11.11
2022-10-27T06:09:28.025Z,11.10
2022-10-27T06:10:27.867Z,11.10
2022-10-27T06:11:27.814Z,11.07
2022-10-27T06:12:27.792Z,11.00
2022-10-27T06:13:27.808Z,11.00
2022-10-27T06:14:30.386Z,11.02
2022-10-27T06:15:27.760Z,10.97
2022-10-27T06:16:27.741Z,10.96
2022-10-27T06:17:27.733Z,10.94
2022-10-27T06:18:27.720Z,10.93
2022-10-27T06:19:27.887Z,10.93
2022-10-27T06:20:27.767Z,10.93
2022-10-27T06:21:27.697Z,10.93
2022-10-27T06:22:27.659Z,10.97
2022-10-27T06:23:27.653Z,11.02
2022-10-27T06:24:27.828Z,11.05
2022-10-27T06:25:27.631Z,11.07
2022-10-27T06:26:27.612Z,10.99
2022-10-27T06:27:27.607Z,10.99
2022-10-27T06:28:27.584Z,10.99
2022-10-27T06:29:27.761Z,10.96
2022-10-27T06:30:27.565Z,10.99
2022-10-27T06:31:27.551Z,10.96
2022-10-27T06:32:27.539Z,10.94
2022-10-27T06:33:27.522Z,10.90
2022-10-27T06:34:27.692Z,10.87
2022-10-27T06:35:27.497Z,10.81
2022-10-27T06:36:27.490Z,10.82
2022-10-27T06:37:27.471Z,10.81
2022-10-27T06:38:27.450Z,10.78
2022-10-27T06:39:27.718Z,10.78
2022-10-27T06:40:27.428Z,10.79
2022-10-27T06:41:27.417Z,10.82
2022-10-27T06:42:28.128Z,10.87
2022-10-27T06:43:27.388Z,10.92
2022-10-27T06:44:27.375Z,10.92
2022-10-27T06:45:27.547Z,10.96
2022-10-27T06:46:27.347Z,11.02
2022-10-27T06:47:27.338Z,11.04
2022-10-27T06:48:27.323Z,11.07
2022-10-27T06:49:27.323Z,11.11
2022-10-27T06:50:27.483Z,11.08
2022-10-27T06:51:27.283Z,11.07
2022-10-27T06:52:27.281Z,11.10
2022-10-27T06:53:27.260Z,11.12
2022-10-27T06:54:27.248Z,11.14
2022-10-27T06:55:27.422Z,11.15
2022-10-27T06:56:27.254Z,11.17
2022-10-27T06:57:27.229Z,11.18
2022-10-27T06:58:27.191Z,11.23
2022-10-27T06:59:27.200Z,11.25
2022-10-27T07:00:27.340Z,11.25
2022-10-27T07:01:27.297Z,11.23
2022-10-27T07:02:27.250Z,11.26
2022-10-27T07:03:27.132Z,11.19
2022-10-27T07:04:27.133Z,11.14
2022-10-27T07:05:27.293Z,11.12
2022-10-27T07:06:27.088Z,11.12
2022-10-27T07:07:27.089Z,11.14
2022-10-27T07:08:27.057Z,11.14
2022-10-27T07:09:27.064Z,11.07
2022-10-27T07:10:27.215Z,11.07
2022-10-27T07:11:27.101Z,11.10
2022-10-27T07:12:27.009Z,10.97
2022-10-27T07:13:26.994Z,10.94
2022-10-27T07:14:26.986Z,10.93
2022-10-27T07:15:27.160Z,10.96
2022-10-27T07:16:30.170Z,10.97
2022-10-27T07:17:27.992Z,10.96
2022-10-27T07:18:26.939Z,10.96
2022-10-27T07:19:26.918Z,10.97
2022-10-27T07:20:26.907Z,11.00
2022-10-27T07:21:27.082Z,11.07
2022-10-27T07:22:26.883Z,11.10
2022-10-27T07:23:26.865Z,11.15
2022-10-27T07:24:26.852Z,11.17
2022-10-27T07:25:26.838Z,11.22
2022-10-27T07:26:26.998Z,11.23
2022-10-27T07:27:26.817Z,11.27
2022-10-27T07:28:26.798Z,11.30
2022-10-27T07:29:26.790Z,11.35
2022-10-27T07:30:26.775Z,11.32
2022-10-27T07:31:26.951Z,11.30
2022-10-27T07:32:26.744Z,11.25
2022-10-27T07:33:26.743Z,11.27
2022-10-27T07:34:26.716Z,11.23
2022-10-27T07:35:26.717Z,11.23
2022-10-27T07:36:26.873Z,11.23
2022-10-27T07:37:26.680Z,11.26
2022-10-27T07:38:26.663Z,11.26
2022-10-27T07:39:26.662Z,11.27
2022-10-27T07:40:28.965Z,11.26
2022-10-27T07:41:27.810Z,11.23
2022-10-27T07:42:26.666Z,11.23
2022-10-27T07:43:26.607Z,11.18
2022-10-27T07:44:26.590Z,11.14
2022-10-27T07:45:26.577Z,11.15
2022-10-27T07:46:26.738Z,11.19
2022-10-27T07:47:26.568Z,11.22
2022-10-27T07:48:26.549Z,11.26
2022-10-27T07:49:26.564Z,11.27
2022-10-27T07:50:28.694Z,11.32
2022-10-27T07:51:26.716Z,11.32
2022-10-27T07:52:26.487Z,11.33
2022-10-27T07:53:26.476Z,11.33
2022-10-27T07:54:26.466Z,11.30
2022-10-27T07:55:26.468Z,11.33
2022-10-27T07:56:26.431Z,11.35
2022-10-27T07:57:26.603Z,11.33
2022-10-27T07:58:26.406Z,11.36
2022-10-27T07:59:26.393Z,11.30
2022-10-27T08:00:26.382Z,11.33
2022-10-27T08:01:26.534Z,11.35
2022-10-27T08:02:26.718Z,11.40
2022-10-27T08:03:26.436Z,11.47
2022-10-27T08:04:26.321Z,11.48
2022-10-27T08:05:26.313Z,11.51
2022-10-27T08:06:26.312Z,11.51
2022-10-27T08:07:26.505Z,11.48
2022-10-27T08:08:26.270Z,11.47
2022-10-27T08:09:26.267Z,11.47
2022-10-27T08:10:26.241Z,11.47
2022-10-27T08:11:26.236Z,11.33
2022-10-27T08:12:26.421Z,11.35
2022-10-27T08:13:26.207Z,11.37
2022-10-27T08:14:26.187Z,11.40
2022-10-27T08:15:26.184Z,11.37
2022-10-27T08:16:26.166Z,11.41
2022-10-27T08:17:26.358Z,11.44
2022-10-27T08:18:26.141Z,11.51
2022-10-27T08:19:26.132Z,11.57
2022-10-27T08:20:26.115Z,11.66
2022-10-27T08:21:26.100Z,11.72
2022-10-27T08:22:26.265Z,11.77
2022-10-27T08:23:26.084Z,11.80
2022-10-27T08:24:26.062Z,11.81
2022-10-27T08:25:26.052Z,11.87
2022-10-27T08:26:26.040Z,11.91
2022-10-27T08:27:26.214Z,11.95
2022-10-27T08:28:26.015Z,11.97
2022-10-27T08:29:25.999Z,11.99
2022-10-27T08:30:26.007Z,12.04
2022-10-27T08:31:25.993Z,12.06
2022-10-27T08:32:26.210Z,12.06
2022-10-27T08:33:25.946Z,12.07
2022-10-27T08:34:25.930Z,12.07
2022-10-27T08:35:25.922Z,12.09
2022-10-27T08:36:25.897Z,12.15
2022-10-27T08:37:26.085Z,12.17
2022-10-27T08:38:25.876Z,12.20
2022-10-27T08:39:25.864Z,12.20
2022-10-27T08:40:25.858Z,12.20
2022-10-27T08:41:25.841Z,12.20
2022-10-27T08:42:25.833Z,12.24
2022-10-27T08:43:26.005Z,12.27
2022-10-27T08:44:25.802Z,12.29
2022-10-27T08:45:25.824Z,12.35
2022-10-27T08:46:25.791Z,12.36
2022-10-27T08:47:25.763Z,12.39
2022-10-27T08:48:25.932Z,12.39
2022-10-27T08:49:25.742Z,12.42
2022-10-27T08:50:25.737Z,12.40
2022-10-27T08:51:25.730Z,12.40
2022-10-27T08:52:25.699Z,12.42
2022-10-27T08:53:26.001Z,12.43
2022-10-27T08:54:25.677Z,12.45
2022-10-27T08:55:25.659Z,12.46
2022-10-27T08:56:25.654Z,12.50
2022-10-27T08:57:25.683Z,12.54
2022-10-27T08:58:25.656Z,12.53
2022-10-27T08:59:25.795Z,12.55
2022-10-27T09:00:25.610Z,12.58
2022-10-27T09:01:25.656Z,12.64
2022-10-27T09:02:25.699Z,12.67
2022-10-27T09:03:25.575Z,12.72
2022-10-27T09:04:25.732Z,12.73
2022-10-27T09:05:25.542Z,12.75
2022-10-27T09:06:25.540Z,12.78
2022-10-27T09:07:25.504Z,12.79
2022-10-27T09:08:25.504Z,12.80
2022-10-27T09:09:25.795Z,12.80
2022-10-27T09:10:25.472Z,12.82
2022-10-27T09:11:25.452Z,12.86
2022-10-27T09:12:25.443Z,12.93
2022-10-27T09:13:25.429Z,12.97
2022-10-27T09:14:25.420Z,13.03
2022-10-27T09:15:25.641Z,13.08
2022-10-27T09:16:25.387Z,13.12
2022-10-27T09:17:25.377Z,13.11
2022-10-27T09:18:25.607Z,13.13
2022-10-27T09:19:25.377Z,13.18
2022-10-27T09:20:25.346Z,13.23
2022-10-27T09:21:25.336Z,13.28
2022-10-27T09:22:25.372Z,13.35
2022-10-27T09:23:25.537Z,13.35
2022-10-27T09:24:25.299Z,13.33
2022-10-27T09:25:25.274Z,13.33
2022-10-27T09:26:25.265Z,13.33
2022-10-27T09:27:25.299Z,13.35
2022-10-27T09:28:25.465Z,13.35
2022-10-27T09:29:25.224Z,13.33
2022-10-27T09:31:25.195Z,13.31
2022-10-27T09:32:25.185Z,13.30
2022-10-27T09:33:25.414Z,13.28
2022-10-27T09:34:25.152Z,13.27
2022-10-27T09:35:25.144Z,13.28
2022-10-27T09:36:25.150Z,13.31
2022-10-27T09:37:25.161Z,13.37
2022-10-27T09:38:25.347Z,13.39
2022-10-27T09:39:25.084Z,13.42
2022-10-27T09:40:25.078Z,13.46
2022-10-27T09:41:25.059Z,13.49
2022-10-27T09:42:25.058Z,13.52
2022-10-27T09:43:25.267Z,13.54
2022-10-27T09:45:25.016Z,13.60
2022-10-27T09:46:24.999Z,13.63
2022-10-27T09:48:25.226Z,13.68
2022-10-27T09:49:24.947Z,13.71
2022-10-27T09:50:24.956Z,13.74
2022-10-27T09:51:24.925Z,13.75
2022-10-27T09:52:24.922Z,13.78
2022-10-27T09:53:25.186Z,13.79
2022-10-27T09:54:24.884Z,13.85
2022-10-27T09:55:24.871Z,13.86
2022-10-27T09:56:24.870Z,13.89
2022-10-27T09:57:24.859Z,13.92
2022-10-27T09:58:25.082Z,13.95
2022-10-27T09:59:24.940Z,13.97
2022-10-27T10:00:24.813Z,13.96
2022-10-27T10:01:24.836Z,13.95
2022-10-27T10:02:24.846Z,14.00
2022-10-27T10:03:25.003Z,14.00
2022-10-27T10:04:24.779Z,14.04
2022-10-27T10:05:24.749Z,14.05
2022-10-27T10:06:24.734Z,14.07
2022-10-27T10:07:24.727Z,14.10
2022-10-27T10:08:24.953Z,14.12
2022-10-27T10:09:24.695Z,14.14
2022-10-27T10:10:28.589Z,14.12
2022-10-27T10:11:25.662Z,14.15
2022-10-27T10:12:24.705Z,14.18
2022-10-27T10:13:24.878Z,14.23
2022-10-27T10:14:24.655Z,14.26
2022-10-27T10:15:24.613Z,14.29
2022-10-27T10:16:24.609Z,14.29
2022-10-27T10:17:24.589Z,14.32
2022-10-27T10:18:24.818Z,14.32
2022-10-27T10:19:24.607Z,14.35
2022-10-27T10:20:24.551Z,14.40
2022-10-27T10:21:24.541Z,14.47
2022-10-27T10:22:24.537Z,14.50
2022-10-27T10:23:31.798Z,14.53
2022-10-27T10:24:24.498Z,14.55
2022-10-27T10:25:24.485Z,14.63
2022-10-27T10:26:24.469Z,14.68
2022-10-27T10:27:24.456Z,14.70
2022-10-27T10:28:24.706Z,14.73
2022-10-27T10:29:24.434Z,14.81
2022-10-27T10:30:24.417Z,14.84
2022-10-27T10:31:24.407Z,14.88
2022-10-27T10:32:24.423Z,14.91
2022-10-27T10:33:24.791Z,14.96
2022-10-27T10:34:24.379Z,14.97
2022-10-27T10:35:24.363Z,15.00
2022-10-27T10:36:24.344Z,15.03
2022-10-27T10:37:24.329Z,15.07
2022-10-27T10:38:24.557Z,15.06
2022-10-27T10:39:24.315Z,15.10
2022-10-27T10:40:24.283Z,15.15
2022-10-27T10:41:24.282Z,15.18
2022-10-27T10:42:24.262Z,15.22
2022-10-27T10:43:24.480Z,15.22
2022-10-27T10:44:24.240Z,15.25
2022-10-27T10:45:24.252Z,15.25
2022-10-27T10:46:24.207Z,15.27
2022-10-27T10:47:24.211Z,15.29
2022-10-27T10:48:24.418Z,15.33
2022-10-27T10:49:24.172Z,15.37
2022-10-27T10:50:24.157Z,15.39
2022-10-27T10:52:24.137Z,15.43
2022-10-27T10:53:26.544Z,15.46
2022-10-27T10:54:25.105Z,15.49
2022-10-27T10:55:24.092Z,15.52
2022-10-27T10:56:24.074Z,15.55
2022-10-27T10:57:25.172Z,15.57
2022-10-27T10:58:24.287Z,15.59
2022-10-27T10:59:24.038Z,15.62
2022-10-27T11:00:24.029Z,15.67
2022-10-27T11:01:24.114Z,15.65
2022-10-27T11:02:24.020Z,15.70
2022-10-27T11:03:24.220Z,15.73
2022-10-27T11:04:23.972Z,15.73
2022-10-27T11:06:23.950Z,15.76
2022-10-27T11:07:23.929Z,15.73
2022-10-27T11:08:24.160Z,15.73
2022-10-27T11:09:23.920Z,15.73
2022-10-27T11:10:23.891Z,15.76
2022-10-27T11:11:23.880Z,15.79
2022-10-27T11:12:23.868Z,15.79
2022-10-27T11:13:24.119Z,15.80
2022-10-27T11:14:23.844Z,15.84
2022-10-27T11:15:23.827Z,15.88
2022-10-27T11:16:23.825Z,15.92
2022-10-27T11:17:23.796Z,16.00
2022-10-27T11:18:24.025Z,16.05
2022-10-27T11:19:23.772Z,16.12
2022-10-27T11:20:23.770Z,16.16
2022-10-27T11:21:23.754Z,16.16
2022-10-27T11:22:23.735Z,16.24
2022-10-27T11:23:23.958Z,16.28
2022-10-27T11:24:23.714Z,16.31
2022-10-27T11:25:23.696Z,16.35
2022-10-27T11:26:23.684Z,16.32
2022-10-27T11:27:23.676Z,16.35
2022-10-27T11:28:23.904Z,16.36
2022-10-27T11:29:23.652Z,16.39
2022-10-27T11:30:23.639Z,16.41
2022-10-27T11:31:23.617Z,16.43
2022-10-27T11:32:23.631Z,16.50
2022-10-27T11:33:23.851Z,16.53
2022-10-27T11:34:23.589Z,16.54
2022-10-27T11:36:23.557Z,16.57
2022-10-27T11:37:23.571Z,16.60
2022-10-27T11:38:23.893Z,16.61
2022-10-27T11:39:26.395Z,16.64
2022-10-27T11:40:23.607Z,16.65
2022-10-27T11:41:23.502Z,16.69
2022-10-27T11:42:23.489Z,16.71
2022-10-27T11:43:23.787Z,16.72
2022-10-27T11:44:23.466Z,16.72
2022-10-27T11:45:23.504Z,16.72
2022-10-27T11:46:23.554Z,16.78
2022-10-27T11:47:24.727Z,16.84
2022-10-27T11:48:23.716Z,16.89
2022-10-27T11:49:23.489Z,16.91
2022-10-27T11:50:23.383Z,16.96
2022-10-27T11:51:23.391Z,16.96
2022-10-27T11:52:23.359Z,16.97
2022-10-27T11:53:23.335Z,16.96
2022-10-27T11:54:23.573Z,16.94
2022-10-27T11:55:23.342Z,16.97
2022-10-27T11:56:23.326Z,16.94
2022-10-27T11:57:38.521Z,16.96
2022-10-27T11:58:24.290Z,16.94
2022-10-27T11:59:23.497Z,16.97
2022-10-27T12:00:23.251Z,16.99
2022-10-27T12:01:23.298Z,17.01
2022-10-27T12:02:23.289Z,16.96
2022-10-27T12:03:23.480Z,16.89
2022-10-27T12:04:23.190Z,16.90
2022-10-27T12:05:23.178Z,16.90
2022-10-27T12:06:23.167Z,16.93
2022-10-27T12:07:23.158Z,16.93
2022-10-27T12:08:23.199Z,16.90
2022-10-27T12:09:23.356Z,16.89
2022-10-27T12:10:23.115Z,16.89
2022-10-27T12:11:23.097Z,16.90
2022-10-27T12:12:23.093Z,16.87
2022-10-27T12:13:23.074Z,16.87
2022-10-27T12:14:23.295Z,16.87
2022-10-27T12:15:23.045Z,16.90
2022-10-27T12:16:23.055Z,16.97
2022-10-27T12:17:23.023Z,16.99
2022-10-27T12:18:23.045Z,17.02
2022-10-27T12:19:23.240Z,17.05
2022-10-27T12:20:22.995Z,17.08
2022-10-27T12:21:22.974Z,17.06
2022-10-27T12:22:22.960Z,17.04
2022-10-27T12:23:23.004Z,17.02
2022-10-27T12:24:23.193Z,17.04
2022-10-27T12:25:22.924Z,17.04
2022-10-27T12:26:22.919Z,17.04
2022-10-27T12:27:22.896Z,17.02
2022-10-27T12:28:23.119Z,17.05
2022-10-27T12:29:22.863Z,17.08
2022-10-27T12:30:22.849Z,17.12
2022-10-27T12:31:22.846Z,17.16
2022-10-27T12:32:22.826Z,17.20
2022-10-27T12:33:23.048Z,17.22
2022-10-27T12:34:22.808Z,17.19
2022-10-27T12:35:22.787Z,17.22
2022-10-27T12:36:22.871Z,17.22
2022-10-27T12:37:23.627Z,17.24
2022-10-27T12:38:22.993Z,17.26
2022-10-27T12:39:22.738Z,17.23
2022-10-27T12:40:22.759Z,17.20
2022-10-27T12:41:22.715Z,17.22
2022-10-27T12:42:22.698Z,17.20
2022-10-27T12:43:22.911Z,17.23
2022-10-27T12:44:22.670Z,17.27
2022-10-27T12:45:22.661Z,17.27
2022-10-27T12:46:22.651Z,17.30
2022-10-27T12:47:22.631Z,17.33
2022-10-27T12:48:22.918Z,17.31
2022-10-27T12:49:22.604Z,17.33
2022-10-27T12:50:22.591Z,17.31
2022-10-27T12:51:22.580Z,17.23
2022-10-27T12:52:22.570Z,17.19
2022-10-27T12:54:23.157Z,17.05
2022-10-27T12:55:22.563Z,17.02
2022-10-27T12:56:23.341Z,16.97
2022-10-27T12:57:22.497Z,16.99
2022-10-27T12:58:22.724Z,16.97
2022-10-27T12:59:22.479Z,16.96
2022-10-27T13:00:22.545Z,16.93